Time;durP1;ratioP1;P1;durP2;ratioP2;P2;SDS_P1;SDS_P2;PMS_P1;PMS_P2;Temp;Humidity;BMP_temperature;BMP_pressure;BME280_temperature;BME280_humidity;BME280_pressure;Samples;Min_cycle;Max_cycle;Signal;HPM_P1;HPM_P2
2021/01/21 00:01:19;;;;;;;29.38;22.52;;;16.40;99.90;;;;;;5092300;28;20543;-29
2021/01/21 00:03:46;;;;;;;26.20;21.58;;;16.30;99.90;;;;;;5092141;28;20374;-29
2021/01/21 00:06:12;;;;;;;27.23;22.98;;;16.40;99.90;;;;;;5091938;28;20024;-28
2021/01/21 00:08:38;;;;;;;27.85;23.33;;;16.40;99.90;;;;;;5092090;28;20016;-28
2021/01/21 00:11:04;;;;;;;25.95;22.40;;;16.40;99.90;;;;;;5092181;28;20382;-28
2021/01/21 00:13:30;;;;;;;26.65;23.00;;;16.30;99.90;;;;;;5091743;28;20036;-28
2021/01/21 00:15:55;;;;;;;27.35;23.95;;;16.20;99.90;;;;;;5091911;28;20047;-28
2021/01/21 00:18:21;;;;;;;26.25;23.05;;;16.20;99.90;;;;;;5092116;28;20027;-28
2021/01/21 00:20:47;;;;;;;25.90;22.58;;;16.20;99.90;;;;;;5092131;28;20159;-29
2021/01/21 00:23:13;;;;;;;27.95;24.05;;;16.20;99.90;;;;;;5092159;28;20024;-29
2021/01/21 00:25:39;;;;;;;32.47;24.13;;;16.20;99.90;;;;;;5091819;28;20076;-29
2021/01/21 00:28:05;;;;;;;28.92;23.55;;;16.10;99.90;;;;;;5092000;28;20027;-28
2021/01/21 00:30:31;;;;;;;29.33;23.67;;;16.10;99.90;;;;;;5092062;28;20519;-29
2021/01/21 00:32:57;;;;;;;29.50;23.60;;;16.10;99.90;;;;;;5091904;28;20035;-29
2021/01/21 00:35:23;;;;;;;27.33;23.15;;;16.10;99.90;;;;;;5091672;28;20043;-29
2021/01/21 00:37:49;;;;;;;25.13;21.33;;;16.10;99.90;;;;;;5091645;28;20103;-29
2021/01/21 00:40:15;;;;;;;26.25;21.70;;;16.10;99.90;;;;;;5091891;28;20414;-30
2021/01/21 00:42:41;;;;;;;24.00;21.33;;;16.10;99.90;;;;;;5091881;28;20099;-28
2021/01/21 00:45:07;;;;;;;24.70;21.38;;;16.10;99.90;;;;;;5091931;28;20373;-29
2021/01/21 00:47:33;;;;;;;26.77;21.65;;;16.00;99.90;;;;;;5073875;28;20050;-28
2021/01/21 00:50:00;;;;;;;24.15;20.48;;;16.00;99.90;;;;;;5091607;28;20470;-29
2021/01/21 00:52:25;;;;;;;25.38;21.65;;;16.00;99.90;;;;;;5091760;28;20141;-29
2021/01/21 00:54:52;;;;;;;25.80;22.05;;;16.00;99.90;;;;;;5093415;28;20095;-29
2021/01/21 00:57:18;;;;;;;25.27;20.42;;;16.00;99.90;;;;;;5095475;28;20020;-28
2021/01/21 00:59:44;;;;;;;24.70;21.13;;;16.00;99.90;;;;;;5095652;28;20031;-29
2021/01/21 01:02:09;;;;;;;24.33;19.88;;;15.90;99.90;;;;;;5095723;28;20023;-28
2021/01/21 01:04:35;;;;;;;25.65;20.98;;;15.90;99.90;;;;;;5095419;28;20024;-28
2021/01/21 01:07:01;;;;;;;24.25;20.02;;;16.00;99.90;;;;;;5095498;28;20035;-28
2021/01/21 01:09:27;;;;;;;23.63;19.70;;;15.90;99.90;;;;;;5095618;28;20534;-28
2021/01/21 01:11:54;;;;;;;22.65;19.35;;;15.90;99.90;;;;;;5095941;28;20403;-28
2021/01/21 01:14:20;;;;;;;26.25;20.25;;;15.90;99.90;;;;;;5095684;28;20136;-28
2021/01/21 01:16:46;;;;;;;23.95;20.42;;;15.90;99.90;;;;;;5095567;28;20111;-28
2021/01/21 01:19:11;;;;;;;28.52;23.75;;;15.80;99.90;;;;;;5095385;28;20024;-29
2021/01/21 01:21:37;;;;;;;25.77;20.98;;;15.90;99.90;;;;;;5095453;28;20091;-27
2021/01/21 01:24:04;;;;;;;23.88;19.50;;;15.80;99.90;;;;;;5095104;28;20095;-28
2021/01/21 01:26:29;;;;;;;25.08;20.10;;;15.80;99.90;;;;;;5077206;28;20046;-29
2021/01/21 01:28:55;;;;;;;24.90;20.13;;;15.80;99.90;;;;;;5095442;28;20450;-29
2021/01/21 01:31:21;;;;;;;25.13;20.17;;;15.80;99.90;;;;;;5076940;28;20077;-28
2021/01/21 01:33:48;;;;;;;22.92;19.65;;;15.80;99.90;;;;;;5094943;28;20048;-28
2021/01/21 01:36:14;;;;;;;24.48;19.42;;;15.80;99.90;;;;;;5095036;28;20482;-29
2021/01/21 01:38:40;;;;;;;26.95;20.92;;;15.80;99.90;;;;;;5095202;28;20103;-28
2021/01/21 01:41:06;;;;;;;25.85;19.70;;;15.80;99.90;;;;;;5094890;28;20027;-29
2021/01/21 01:43:31;;;;;;;22.75;18.40;;;15.80;99.90;;;;;;5095014;28;20030;-28
2021/01/21 01:45:57;;;;;;;24.40;18.88;;;15.80;99.90;;;;;;5094801;28;20117;-29
2021/01/21 01:48:24;;;;;;;23.75;18.45;;;15.70;99.90;;;;;;5094816;28;20062;-28
2021/01/21 01:50:50;;;;;;;23.05;18.73;;;15.80;99.90;;;;;;5094761;28;20097;-28
2021/01/21 01:53:16;;;;;;;21.40;18.23;;;15.70;99.90;;;;;;5094800;28;20474;-29
2021/01/21 01:55:41;;;;;;;21.98;17.25;;;15.70;99.90;;;;;;5094616;28;20031;-29
2021/01/21 01:58:14;;;;;;;26.23;19.42;;;15.70;99.90;;;;;;5094714;28;20020;-29
2021/01/21 02:00:44;;;;;;;22.55;18.48;;;15.70;99.90;;;;;;5094309;28;20473;-28
2021/01/21 02:03:10;;;;;;;25.63;18.83;;;15.60;99.90;;;;;;5082858;28;20087;-28
2021/01/21 02:05:36;;;;;;;22.90;16.90;;;15.70;99.90;;;;;;5072485;28;20485;-29
2021/01/21 02:08:02;;;;;;;20.08;17.15;;;15.60;99.90;;;;;;5073936;28;20024;-29
2021/01/21 02:10:28;;;;;;;24.23;18.42;;;15.60;99.90;;;;;;5074228;28;20051;-28
2021/01/21 02:13:19;;;;;;;22.30;18.17;;;15.60;99.90;;;;;;5074217;28;20458;-29
2021/01/21 02:15:48;;;;;;;20.58;17.25;;;15.60;99.90;;;;;;5074247;28;20032;-28
2021/01/21 02:18:41;;;;;;;21.83;18.27;;;15.60;99.90;;;;;;5056140;28;20070;-28
2021/01/21 02:21:26;;;;;;;21.95;17.58;;;15.60;99.90;;;;;;5058178;28;20468;-28
2021/01/21 02:24:10;;;;;;;26.13;19.35;;;15.60;99.90;;;;;;5073706;28;20016;-29
2021/01/21 02:26:50;;;;;;;20.80;17.42;;;15.60;99.90;;;;;;5073965;28;20021;-28
2021/01/21 02:29:26;;;;;;;20.08;16.65;;;15.60;99.90;;;;;;5073850;28;20079;-29
2021/01/21 02:32:11;;;;;;;21.25;17.45;;;15.60;99.90;;;;;;5073803;28;20039;-29
2021/01/21 02:34:48;;;;;;;23.27;18.08;;;15.60;99.90;;;;;;5073746;28;20040;-28
2021/01/21 02:37:25;;;;;;;24.50;18.00;;;15.60;99.90;;;;;;5073792;28;20028;-29
2021/01/21 02:39:53;;;;;;;25.45;19.40;;;15.50;99.90;;;;;;5073808;28;20455;-28
2021/01/21 02:42:20;;;;;;;27.73;17.83;;;15.60;99.90;;;;;;5073457;28;20035;-28
2021/01/21 02:44:47;;;;;;;23.13;19.13;;;15.60;99.90;;;;;;5073400;28;20021;-29
2021/01/21 02:47:14;;;;;;;21.45;18.17;;;15.60;99.90;;;;;;5073501;28;20455;-27
2021/01/21 02:49:40;;;;;;;21.27;17.07;;;15.50;99.90;;;;;;5073364;28;20382;-32
2021/01/21 02:52:24;;;;;;;22.02;18.23;;;15.50;99.90;;;;;;5073444;28;20028;-27
2021/01/21 02:55:03;;;;;;;22.23;17.55;;;15.50;99.90;;;;;;5073076;28;20036;-27
2021/01/21 02:57:44;;;;;;;24.35;18.55;;;15.50;99.90;;;;;;5073312;28;20032;-27
2021/01/21 03:00:12;;;;;;;19.08;15.68;;;15.50;99.90;;;;;;5073183;28;20024;-27
2021/01/21 03:02:44;;;;;;;26.95;18.13;;;15.50;99.90;;;;;;5072822;28;20021;-27
2021/01/21 03:05:12;;;;;;;20.35;17.02;;;15.50;99.90;;;;;;5073004;28;20028;-28
2021/01/21 03:07:40;;;;;;;21.98;18.13;;;15.50;99.90;;;;;;5073053;28;20055;-28
2021/01/21 03:10:10;;;;;;;22.05;17.67;;;15.50;99.90;;;;;;5055136;28;20022;-28
2021/01/21 03:12:36;;;;;;;23.10;18.65;;;15.50;99.90;;;;;;5072769;28;20096;-27
2021/01/21 03:15:05;;;;;;;23.85;17.38;;;15.50;99.90;;;;;;5072815;28;20028;-27
2021/01/21 03:17:31;;;;;;;20.00;16.45;;;15.40;99.90;;;;;;5071958;28;20024;-27
2021/01/21 03:19:56;;;;;;;23.73;18.48;;;15.40;99.90;;;;;;5072754;28;20479;-27
2021/01/21 03:22:22;;;;;;;21.13;16.42;;;15.40;99.90;;;;;;5072577;28;20016;-27
2021/01/21 03:24:48;;;;;;;20.95;16.40;;;15.40;99.90;;;;;;5072628;28;20434;-27
2021/01/21 03:27:14;;;;;;;22.83;17.13;;;15.40;99.90;;;;;;5072449;28;20028;-27
2021/01/21 03:29:40;;;;;;;22.65;17.10;;;15.40;99.90;;;;;;5072614;28;20017;-27
2021/01/21 03:32:06;;;;;;;22.55;18.08;;;15.40;99.90;;;;;;5054762;28;20398;-28
2021/01/21 03:34:32;;;;;;;22.65;15.82;;;15.40;99.90;;;;;;5072100;28;20048;-27
2021/01/21 03:36:58;;;;;;;19.90;15.85;;;15.30;99.90;;;;;;5072455;28;20024;-27
2021/01/21 03:39:24;;;;;;;22.90;17.17;;;15.30;99.90;;;;;;5071012;28;20029;-28
2021/01/21 03:41:51;;;;;;;20.02;15.82;;;15.30;99.90;;;;;;5054458;28;20032;-28
2021/01/21 03:44:17;;;;;;;20.58;15.18;;;15.30;99.90;;;;;;5072342;28;20031;-28
2021/01/21 03:46:43;;;;;;;21.13;15.43;;;15.30;99.90;;;;;;5072458;28;20023;-28
2021/01/21 03:49:10;;;;;;;20.05;15.32;;;15.30;99.90;;;;;;5072321;28;20466;-28
2021/01/21 03:51:36;;;;;;;17.70;15.25;;;15.30;99.90;;;;;;5072489;28;20082;-28
2021/01/21 03:54:02;;;;;;;18.80;14.90;;;15.30;99.90;;;;;;5072359;28;20433;-28
2021/01/21 03:56:27;;;;;;;18.63;14.45;;;15.30;99.90;;;;;;5072253;28;20573;-28
2021/01/21 03:58:53;;;;;;;16.88;14.02;;;15.30;99.90;;;;;;5072093;28;20028;-28
2021/01/21 04:01:19;;;;;;;20.00;14.77;;;15.30;99.90;;;;;;5072125;28;20467;-28
2021/01/21 04:03:45;;;;;;;18.42;14.32;;;15.30;99.90;;;;;;5072239;28;20033;-28
2021/01/21 04:06:11;;;;;;;17.50;14.15;;;15.30;99.90;;;;;;5072612;28;20433;-28
2021/01/21 04:08:37;;;;;;;16.98;14.75;;;15.30;99.90;;;;;;5072504;28;20532;-28
2021/01/21 04:11:03;;;;;;;15.50;13.82;;;15.30;99.90;;;;;;5072025;28;20056;-32
2021/01/21 04:13:29;;;;;;;17.77;14.48;;;15.30;99.90;;;;;;5072032;28;20024;-28
2021/01/21 04:15:54;;;;;;;17.13;13.10;;;15.30;99.90;;;;;;5071911;28;20033;-28
2021/01/21 04:18:20;;;;;;;16.95;13.35;;;15.20;99.90;;;;;;5071888;28;20029;-28
2021/01/21 04:20:46;;;;;;;17.08;13.73;;;15.20;99.90;;;;;;5070442;28;20029;-28
2021/01/21 04:23:12;;;;;;;17.17;12.73;;;15.20;99.90;;;;;;5071953;28;20024;-28
2021/01/21 04:25:38;;;;;;;17.38;13.40;;;15.20;99.90;;;;;;5071841;28;20070;-28
2021/01/21 04:28:04;;;;;;;17.30;13.60;;;15.20;99.90;;;;;;5071591;28;20020;-33
2021/01/21 04:30:30;;;;;;;16.52;13.05;;;15.20;99.90;;;;;;5071701;28;20092;-28
2021/01/21 04:32:56;;;;;;;18.25;14.60;;;15.20;99.90;;;;;;5071715;28;20532;-28
2021/01/21 04:35:22;;;;;;;18.98;13.43;;;15.20;99.90;;;;;;5071648;28;20056;-28
2021/01/21 04:37:48;;;;;;;16.42;12.07;;;15.20;99.90;;;;;;5071576;28;20025;-28
2021/01/21 04:40:14;;;;;;;17.25;12.60;;;15.20;99.90;;;;;;5071626;28;20032;-28
2021/01/21 04:42:41;;;;;;;18.63;13.35;;;15.10;99.90;;;;;;5071527;28;20027;-28
2021/01/21 04:45:08;;;;;;;17.83;13.32;;;15.20;99.90;;;;;;5071535;28;20031;-28
2021/01/21 04:47:35;;;;;;;19.20;12.95;;;15.20;99.90;;;;;;5071460;28;20021;-28
2021/01/21 04:50:03;;;;;;;17.70;13.93;;;15.20;99.90;;;;;;5053593;28;20048;-29
2021/01/21 04:52:34;;;;;;;15.50;12.85;;;15.10;99.90;;;;;;5071290;28;20066;-28
2021/01/21 04:55:30;;;;;;;16.75;12.80;;;15.10;99.90;;;;;;5071647;28;20470;-28
2021/01/21 04:57:59;;;;;;;17.30;12.18;;;15.10;99.90;;;;;;5067589;28;20032;-28
2021/01/21 05:00:27;;;;;;;16.70;11.98;;;15.10;99.90;;;;;;5071582;28;20025;-28
2021/01/21 05:02:54;;;;;;;15.35;12.48;;;15.10;99.90;;;;;;5071810;28;20029;-28
2021/01/21 05:05:20;;;;;;;16.50;12.13;;;15.10;99.90;;;;;;5071410;28;20496;-28
2021/01/21 05:07:46;;;;;;;16.75;13.20;;;15.10;99.90;;;;;;5071534;28;20021;-28
2021/01/21 05:10:15;;;;;;;17.50;12.35;;;15.10;99.90;;;;;;5071412;28;20074;-28
2021/01/21 05:12:41;;;;;;;15.60;11.63;;;15.10;99.90;;;;;;5071699;28;20079;-28
2021/01/21 05:15:07;;;;;;;15.95;11.65;;;15.10;99.90;;;;;;5071436;28;20027;-28
2021/01/21 05:17:33;;;;;;;13.85;10.85;;;15.10;99.90;;;;;;5071409;28;20028;-28
2021/01/21 05:20:00;;;;;;;16.77;11.23;;;15.10;99.90;;;;;;5071020;28;20024;-28
2021/01/21 05:22:26;;;;;;;15.77;10.95;;;15.10;99.90;;;;;;5071058;28;20039;-28
2021/01/21 05:24:52;;;;;;;15.20;10.70;;;15.10;99.90;;;;;;5071288;28;20459;-28
2021/01/21 05:27:20;;;;;;;14.57;10.77;;;15.10;99.90;;;;;;5053269;28;20027;-28
2021/01/21 05:29:47;;;;;;;14.32;10.80;;;15.10;99.90;;;;;;5071112;28;20033;-29
2021/01/21 05:32:20;;;;;;;13.27;10.00;;;15.10;99.90;;;;;;5088186;28;20082;-28
2021/01/21 05:34:47;;;;;;;15.55;10.90;;;15.10;99.90;;;;;;5091505;28;20440;-28
2021/01/21 05:37:14;;;;;;;14.77;10.35;;;15.10;99.90;;;;;;5091685;28;20112;-28
2021/01/21 05:39:44;;;;;;;15.90;10.25;;;15.10;99.90;;;;;;5093772;28;20019;-28
2021/01/21 05:42:11;;;;;;;13.63;9.98;;;15.10;99.90;;;;;;5113931;28;20112;-28
2021/01/21 05:44:37;;;;;;;15.40;9.87;;;15.10;99.90;;;;;;5115556;28;20129;-28
2021/01/21 05:47:05;;;;;;;13.90;10.40;;;15.10;99.90;;;;;;5094692;28;20016;-30
2021/01/21 05:49:31;;;;;;;14.38;9.32;;;15.10;99.90;;;;;;5093481;28;20024;-29
2021/01/21 05:51:58;;;;;;;13.20;9.75;;;15.10;99.90;;;;;;5094592;28;20028;-29
2021/01/21 05:54:25;;;;;;;16.40;9.55;;;15.00;99.90;;;;;;5093896;28;20035;-29
2021/01/21 05:56:53;;;;;;;14.40;9.43;;;15.10;99.90;;;;;;5094565;28;20028;-30
2021/01/21 05:59:19;;;;;;;15.43;8.70;;;15.10;99.90;;;;;;5094718;28;20287;-29
2021/01/21 06:01:47;;;;;;;20.42;10.23;;;15.00;99.90;;;;;;5094053;28;20024;-29
2021/01/21 06:04:13;;;;;;;;;;;15.00;99.90;;;;;;5095048;28;20470;-29
2021/01/21 06:06:42;;;;;;;20.58;10.95;;;15.00;99.90;;;;;;5094589;28;19904;-29
2021/01/21 06:09:18;;;;;;;16.58;10.70;;;15.00;99.90;;;;;;5094248;28;20020;-29
2021/01/21 06:11:44;;;;;;;14.57;10.00;;;15.00;99.90;;;;;;5094334;28;20024;-29
2021/01/21 06:14:11;;;;;;;17.00;10.55;;;15.00;99.90;;;;;;5094074;28;20035;-28
2021/01/21 06:16:38;;;;;;;14.82;9.65;;;15.00;99.90;;;;;;5093496;28;20032;-29
2021/01/21 06:19:04;;;;;;;16.20;11.27;;;14.90;99.90;;;;;;5094436;28;20051;-28
2021/01/21 06:21:35;;;;;;;13.93;10.52;;;14.90;99.90;;;;;;5093966;28;20043;-29
2021/01/21 06:24:05;;;;;;;12.93;9.57;;;14.90;99.90;;;;;;5079140;28;20367;-29
2021/01/21 06:26:47;;;;;;;16.05;10.07;;;14.90;99.90;;;;;;5094206;28;20028;-28
2021/01/21 06:29:17;;;;;;;15.02;10.13;;;14.90;99.90;;;;;;5094486;28;20024;-29
2021/01/21 06:31:44;;;;;;;14.98;10.48;;;14.90;99.90;;;;;;5093905;28;20035;-29
2021/01/21 06:34:18;;;;;;;12.38;9.43;;;14.90;99.90;;;;;;5092911;28;20055;-29
2021/01/21 06:36:51;;;;;;;13.43;9.60;;;14.90;99.90;;;;;;5093877;28;20063;-29
2021/01/21 06:39:52;;;;;;;13.57;10.60;;;14.90;99.90;;;;;;5093414;28;20042;-29
2021/01/21 06:42:32;;;;;;;12.70;9.93;;;14.80;99.90;;;;;;5093542;28;20032;-29
2021/01/21 06:44:59;;;;;;;14.95;9.85;;;14.80;99.90;;;;;;5091833;28;20016;-29
2021/01/21 06:47:25;;;;;;;17.20;11.07;;;14.90;99.90;;;;;;5093411;28;20020;-29
2021/01/21 06:50:00;;;;;;;14.32;11.15;;;14.90;99.90;;;;;;5092625;28;20045;-33
2021/01/21 06:52:30;;;;;;;13.27;10.38;;;14.90;99.90;;;;;;5093790;28;20027;-29
2021/01/21 06:54:58;;;;;;;15.38;11.75;;;14.90;99.90;;;;;;5093479;28;20028;-29
2021/01/21 06:57:36;;;;;;;;;;;14.90;99.90;;;;;;5094718;28;20016;-28
2021/01/21 07:00:08;;;;;;;12.57;9.55;;;14.90;99.90;;;;;;5092994;28;19912;-29
2021/01/21 07:02:48;;;;;;;17.17;9.98;;;14.90;99.90;;;;;;5075151;28;20020;-29
2021/01/21 07:05:18;;;;;;;17.10;11.30;;;14.90;99.90;;;;;;5091299;28;20126;-29
2021/01/21 07:07:54;;;;;;;13.88;11.45;;;14.90;99.90;;;;;;5105875;28;20028;-29
2021/01/21 07:10:25;;;;;;;14.18;10.73;;;14.80;99.90;;;;;;5092709;28;20485;-29
2021/01/21 07:12:51;;;;;;;15.02;9.77;;;14.90;99.90;;;;;;5093632;28;20020;-29
2021/01/21 07:15:17;;;;;;;13.63;10.63;;;14.90;99.90;;;;;;5074907;28;20556;-29
2021/01/21 07:17:43;;;;;;;13.68;10.10;;;14.80;99.90;;;;;;5092912;28;20028;-29
2021/01/21 07:20:10;;;;;;;15.45;10.93;;;14.90;99.90;;;;;;5092881;28;20035;-29
2021/01/21 07:22:44;;;;;;;15.55;11.15;;;14.90;99.90;;;;;;5092707;28;20026;-29
2021/01/21 07:25:13;;;;;;;16.98;11.50;;;14.90;99.90;;;;;;5092912;28;20099;-29
2021/01/21 07:27:41;;;;;;;16.27;11.90;;;14.90;99.90;;;;;;5092827;28;20026;-30
2021/01/21 07:30:20;;;;;;;;;;;14.90;99.90;;;;;;5093258;28;20071;-29
2021/01/21 07:32:47;;;;;;;17.33;11.00;;;15.00;99.90;;;;;;5092805;28;19908;-29
2021/01/21 07:35:43;;;;;;;18.10;12.30;;;15.00;99.90;;;;;;5092283;28;20044;-29
2021/01/21 07:38:09;;;;;;;17.02;12.27;;;15.00;99.90;;;;;;5071173;28;20036;-29
2021/01/21 07:40:49;;;;;;;579.05;459.40;;;15.00;99.90;;;;;;5092347;28;20035;-29
2021/01/21 07:43:15;;;;;;;647.58;535.10;;;14.90;99.90;;;;;;5092536;28;20024;-29
2021/01/21 07:45:41;;;;;;;605.28;515.35;;;14.80;99.90;;;;;;5074297;28;20024;-30
2021/01/21 07:48:27;;;;;;;568.53;480.83;;;14.70;99.90;;;;;;5092363;28;20424;-29
2021/01/21 07:50:54;;;;;;;509.02;430.55;;;14.80;99.90;;;;;;5092676;28;20024;-29
2021/01/21 07:53:22;;;;;;;475.48;392.25;;;14.80;99.90;;;;;;5092495;28;20556;-29
2021/01/21 07:55:49;;;;;;;436.02;358.95;;;14.80;99.90;;;;;;5092936;28;20501;-29
2021/01/21 07:58:27;;;;;;;414.42;331.70;;;15.00;99.90;;;;;;5092251;28;20043;-29
2021/01/21 08:00:55;;;;;;;388.73;309.08;;;15.00;99.90;;;;;;5092067;28;20024;-29
2021/01/21 08:03:28;;;;;;;;;;;15.00;99.90;;;;;;5092248;28;20370;-29
2021/01/21 08:06:21;;;;;;;329.60;256.33;;;15.10;99.90;;;;;;5092363;28;19915;-29
2021/01/21 08:08:49;;;;;;;292.13;236.13;;;15.10;99.90;;;;;;5073620;28;20529;-29
2021/01/21 08:11:20;;;;;;;282.63;225.88;;;15.20;99.90;;;;;;5091913;28;20032;-29
2021/01/21 08:13:49;;;;;;;261.77;209.80;;;15.20;99.90;;;;;;5092053;28;20103;-29
2021/01/21 08:16:16;;;;;;;232.10;187.60;;;15.20;99.90;;;;;;5092020;28;20385;-29
2021/01/21 08:18:42;;;;;;;231.10;186.15;;;15.20;99.90;;;;;;5092035;28;20089;-29
2021/01/21 08:21:34;;;;;;;216.70;169.52;;;15.30;99.90;;;;;;5091822;28;20024;-29
2021/01/21 08:24:11;;;;;;;197.35;153.68;;;15.30;99.90;;;;;;5087522;28;20046;-29
2021/01/21 08:26:37;;;;;;;194.43;151.25;;;15.30;99.90;;;;;;5091809;28;20012;-29
2021/01/21 08:29:12;;;;;;;180.48;140.82;;;15.40;99.90;;;;;;5092144;28;20035;-29
2021/01/21 08:31:43;;;;;;;172.25;133.38;;;15.40;99.90;;;;;;5073404;28;20482;-29
2021/01/21 08:34:16;;;;;;;158.90;127.63;;;15.50;99.90;;;;;;5091757;28;20402;-30
2021/01/21 08:36:43;;;;;;;150.02;125.00;;;15.50;99.90;;;;;;5073316;28;20069;-29
2021/01/21 08:39:11;;;;;;;484.88;393.05;;;15.40;99.90;;;;;;5091806;28;20077;-29
2021/01/21 08:41:37;;;;;;;;;;;15.50;99.90;;;;;;5091870;28;20391;-29
2021/01/21 08:44:04;;;;;;;766.17;619.05;;;15.50;99.90;;;;;;5091602;28;19936;-29
2021/01/21 08:46:30;;;;;;;650.58;543.40;;;15.40;99.90;;;;;;5091721;28;20439;-29
2021/01/21 08:49:08;;;;;;;486.90;405.45;;;15.40;99.90;;;;;;5091567;28;20048;-29
2021/01/21 08:51:41;;;;;;;398.90;318.73;;;15.30;99.90;;;;;;5091656;28;20024;-29
2021/01/21 08:54:14;;;;;;;338.10;267.67;;;15.20;99.90;;;;;;5091688;28;20024;-29
2021/01/21 08:56:40;;;;;;;447.42;355.88;;;15.10;99.90;;;;;;5105476;28;20460;-30
2021/01/21 08:59:29;;;;;;;322.08;259.13;;;15.10;99.90;;;;;;5113457;28;20106;-29
2021/01/21 09:01:55;;;;;;;267.83;206.30;;;15.10;99.90;;;;;;5112149;28;20115;-29
2021/01/21 09:04:26;;;;;;;201.15;152.63;;;15.20;99.90;;;;;;5097296;28;20027;-30
2021/01/21 09:06:55;;;;;;;153.60;118.35;;;15.30;99.90;;;;;;5090915;28;20020;-29
2021/01/21 09:09:34;;;;;;;135.77;102.05;;;15.30;99.90;;;;;;5098683;28;20013;-29
2021/01/21 09:12:23;;;;;;;119.15;87.80;;;15.40;99.90;;;;;;5090754;28;20028;-29
2021/01/21 09:15:07;;;;;;;91.40;65.13;;;15.40;99.90;;;;;;5094399;28;20546;-29
2021/01/21 09:17:34;;;;;;;67.78;51.53;;;15.50;99.90;;;;;;5098766;28;20139;-29
2021/01/21 09:20:17;;;;;;;61.03;46.67;;;15.50;99.90;;;;;;5086306;28;20069;-29
2021/01/21 09:22:43;;;;;;;57.45;38.80;;;15.50;99.90;;;;;;5107495;28;20077;-29
2021/01/21 09:25:09;;;;;;;46.75;32.03;;;15.60;99.90;;;;;;5102639;28;20474;-29
2021/01/21 09:27:39;;;;;;;36.97;28.10;;;15.60;99.90;;;;;;5086281;28;20123;-29
2021/01/21 09:30:13;;;;;;;40.05;27.02;;;15.60;99.90;;;;;;5091059;28;20028;-29
2021/01/21 09:32:43;;;;;;;29.58;21.52;;;15.70;99.90;;;;;;5094966;28;20048;-29
2021/01/21 09:35:09;;;;;;;31.02;21.48;;;15.70;99.90;;;;;;5109784;28;20094;-29
2021/01/21 09:37:39;;;;;;;31.67;21.55;;;15.70;99.90;;;;;;5096593;28;20118;-29
2021/01/21 09:40:11;;;;;;;38.78;22.98;;;15.70;99.90;;;;;;5086443;28;20424;-29
2021/01/21 09:42:37;;;;;;;33.53;21.67;;;15.80;99.90;;;;;;5083456;28;20027;-30
2021/01/21 09:45:05;;;;;;;55.88;39.60;;;15.80;99.90;;;;;;5092845;28;20096;-29
2021/01/21 09:47:31;;;;;;;;;;;15.90;99.90;;;;;;5092119;28;20024;-29
2021/01/21 09:49:56;;;;;;;53.42;39.85;;;16.00;99.90;;;;;;5094533;28;19919;-29
2021/01/21 09:52:22;;;;;;;53.67;41.15;;;16.00;99.90;;;;;;5089564;28;20028;-29
2021/01/21 09:54:48;;;;;;;53.53;37.13;;;16.10;99.90;;;;;;5074641;28;20024;-29
2021/01/21 09:57:14;;;;;;;33.55;24.85;;;16.20;99.90;;;;;;5094137;28;20032;-29
2021/01/21 09:59:40;;;;;;;41.13;27.65;;;16.20;99.90;;;;;;5094110;28;20327;-30
2021/01/21 10:02:06;;;;;;;48.00;26.85;;;16.20;99.90;;;;;;5093957;28;20028;-30
2021/01/21 10:04:35;;;;;;;39.05;22.88;;;16.30;99.90;;;;;;5094196;28;20023;-29
2021/01/21 10:07:01;;;;;;;34.75;22.70;;;16.40;99.90;;;;;;5094286;28;20012;-29
2021/01/21 10:09:27;;;;;;;30.75;18.80;;;16.40;99.90;;;;;;5094131;28;20032;-29
2021/01/21 10:11:53;;;;;;;23.58;14.60;;;16.50;99.90;;;;;;5094284;28;20100;-29
2021/01/21 10:14:19;;;;;;;25.08;12.40;;;16.50;99.90;;;;;;5093979;28;20024;-29
2021/01/21 10:16:45;;;;;;;16.15;10.25;;;16.50;99.90;;;;;;5092797;28;20075;-29
2021/01/21 10:19:11;;;;;;;21.42;10.77;;;16.60;99.90;;;;;;5093767;28;20493;-29
2021/01/21 10:21:37;;;;;;;25.83;9.25;;;16.60;99.90;;;;;;5094729;28;20021;-29
2021/01/21 10:24:04;;;;;;;18.42;7.82;;;16.70;99.90;;;;;;5093603;28;20026;-28
2021/01/21 10:26:30;;;;;;;15.27;5.78;;;16.70;99.90;;;;;;5084468;28;20490;-28
2021/01/21 10:28:55;;;;;;;17.02;6.70;;;16.70;99.90;;;;;;5085584;28;20126;-29
2021/01/21 10:31:21;;;;;;;17.00;6.53;;;16.80;99.90;;;;;;5094526;28;20097;-29
2021/01/21 10:33:47;;;;;;;14.13;6.18;;;16.80;99.90;;;;;;5093475;28;20048;-29
2021/01/21 10:36:13;;;;;;;12.57;6.20;;;16.90;99.90;;;;;;5093831;28;20028;-29
2021/01/21 10:38:40;;;;;;;18.33;6.55;;;17.00;99.90;;;;;;5090240;28;20425;-29
2021/01/21 10:41:07;;;;;;;18.38;6.22;;;17.10;99.90;;;;;;5098937;28;20419;-29
2021/01/21 10:43:33;;;;;;;16.13;5.93;;;17.20;99.90;;;;;;5105055;28;20021;-29
2021/01/21 10:45:59;;;;;;;52.92;32.10;;;17.20;99.90;;;;;;5092737;28;20026;-29
2021/01/21 10:48:26;;;;;;;27.15;16.95;;;17.30;99.90;;;;;;5093078;28;20020;-29
2021/01/21 10:50:52;;;;;;;34.28;21.83;;;17.40;99.90;;;;;;5074219;28;20127;-29
2021/01/21 10:53:18;;;;;;;54.35;34.20;;;17.50;99.90;;;;;;5082982;28;20024;-29
2021/01/21 10:55:44;;;;;;;52.50;37.38;;;17.60;99.90;;;;;;5087515;28;20378;-29
2021/01/21 10:58:10;;;;;;;42.85;30.15;;;17.70;99.90;;;;;;5091414;28;20024;-29
2021/01/21 11:00:36;;;;;;;48.30;33.90;;;17.70;99.90;;;;;;5093962;28;20085;-29
2021/01/21 11:03:03;;;;;;;42.25;29.05;;;17.90;99.90;;;;;;5110408;28;20026;-29
2021/01/21 11:05:29;;;;;;;25.23;14.27;;;18.00;99.90;;;;;;5108147;28;20031;-29
2021/01/21 11:07:55;;;;;;;20.73;8.60;;;18.00;99.90;;;;;;5101233;28;20111;-29
2021/01/21 11:10:21;;;;;;;20.77;7.82;;;18.10;99.90;;;;;;5103404;28;20099;-29
2021/01/21 11:12:48;;;;;;;22.38;8.80;;;18.20;99.90;;;;;;5113270;28;20054;-30
2021/01/21 11:15:18;;;;;;;24.88;12.48;;;18.30;99.90;;;;;;5113214;28;20092;-29
2021/01/21 11:17:49;;;;;;;21.33;12.55;;;18.40;99.90;;;;;;5113183;28;20020;-29
2021/01/21 11:20:15;;;;;;;26.17;10.00;;;18.60;99.90;;;;;;5093679;28;20031;-29
2021/01/21 11:22:42;;;;;;;27.90;11.65;;;18.60;99.90;;;;;;5097882;28;20028;-29
2021/01/21 11:25:09;;;;;;;24.05;8.60;;;18.80;99.90;;;;;;5097560;28;20019;-29
2021/01/21 11:27:36;;;;;;;19.58;7.50;;;18.80;99.90;;;;;;5102511;28;20012;-29
2021/01/21 11:30:07;;;;;;;26.83;9.48;;;18.90;99.90;;;;;;5095524;28;20497;-29
2021/01/21 11:32:33;;;;;;;23.92;9.40;;;19.00;99.90;;;;;;5090937;28;20040;-29
2021/01/21 11:34:59;;;;;;;23.60;9.18;;;19.10;99.90;;;;;;5106184;28;20091;-29
2021/01/21 11:37:25;;;;;;;24.23;9.52;;;19.20;99.90;;;;;;5112783;28;20118;-29
2021/01/21 11:39:52;;;;;;;26.58;9.95;;;19.30;99.90;;;;;;5112590;28;20034;-29
2021/01/21 11:42:18;;;;;;;23.27;8.80;;;19.50;99.90;;;;;;5112589;28;20057;-29
2021/01/21 11:44:44;;;;;;;20.30;6.70;;;19.60;99.90;;;;;;5112771;28;20100;-29
2021/01/21 11:47:10;;;;;;;16.67;5.22;;;19.70;99.90;;;;;;5112746;28;20058;-29
2021/01/21 11:49:36;;;;;;;14.30;4.25;;;19.70;99.90;;;;;;5112484;28;20034;-29
2021/01/21 11:52:02;;;;;;;16.75;4.00;;;19.70;99.90;;;;;;5112741;28;20026;-29
2021/01/21 11:54:28;;;;;;;17.35;4.78;;;19.60;99.90;;;;;;5112831;28;20094;-31
2021/01/21 11:56:54;;;;;;;17.10;3.83;;;19.60;99.90;;;;;;5097041;28;20024;-29
2021/01/21 11:59:19;;;;;;;12.45;3.88;;;19.60;99.90;;;;;;5079514;28;20052;-29
2021/01/21 12:01:45;;;;;;;13.23;4.18;;;19.50;99.90;;;;;;5073138;28;20064;-29
2021/01/21 12:04:12;;;;;;;11.10;3.95;;;19.50;99.90;;;;;;5092259;28;20020;-29
2021/01/21 12:06:38;;;;;;;18.98;5.72;;;19.50;99.90;;;;;;5091909;28;20020;-29
2021/01/21 12:09:04;;;;;;;19.73;5.00;;;19.50;99.90;;;;;;5074754;28;20020;-29
2021/01/21 12:11:31;;;;;;;19.50;4.82;;;19.60;99.90;;;;;;5092424;28;20095;-29
2021/01/21 12:13:57;;;;;;;23.48;4.72;;;19.70;99.90;;;;;;5092587;28;20031;-29
2021/01/21 12:16:22;;;;;;;14.07;4.28;;;19.90;99.90;;;;;;5083652;28;20398;-29
2021/01/21 12:18:49;;;;;;;10.98;3.63;;;20.10;99.90;;;;;;5092122;28;20094;-29
2021/01/21 12:21:15;;;;;;;14.18;4.00;;;20.20;99.90;;;;;;5092536;28;20073;-29
2021/01/21 12:23:41;;;;;;;10.93;2.90;;;20.30;99.90;;;;;;5092212;28;20353;-29
2021/01/21 12:26:07;;;;;;;15.18;3.47;;;20.40;99.90;;;;;;5074172;28;20020;-29
2021/01/21 12:28:35;;;;;;;15.43;3.22;;;20.50;99.90;;;;;;5072125;28;20025;-29
2021/01/21 12:31:03;;;;;;;16.98;3.10;;;20.50;99.90;;;;;;5092745;28;20036;-29
2021/01/21 12:33:29;;;;;;;12.38;3.45;;;20.60;99.90;;;;;;5092637;28;20478;-29
2021/01/21 12:35:56;;;;;;;15.90;4.00;;;20.60;99.90;;;;;;5092158;28;20032;-29